Time;durP1;ratioP1;P1;durP2;ratioP2;P2;SDS_P1;SDS_P2;PMS_P1;PMS_P2;Temp;Humidity;BMP_temperature;BMP_pressure;BME280_temperature;BME280_humidity;BME280_pressure;Samples;Min_cycle;Max_cycle;Signal;HPM_P1;HPM_P2
2020/12/10 00:03:03;;;;;;;20.93;17.77;;;4.80;99.90;;;;;;10256938;28;20221;-80
2020/12/10 00:08:05;;;;;;;22.80;18.87;;;4.80;99.90;;;;;;10260930;29;20207;-80
2020/12/10 00:13:07;;;;;;;22.93;18.87;;;4.70;99.90;;;;;;10256581;28;20196;-79
2020/12/10 00:18:09;;;;;;;24.17;18.50;;;4.80;99.90;;;;;;10237977;28;20803;-80
2020/12/10 00:23:10;;;;;;;25.30;19.60;;;4.80;99.90;;;;;;10253407;29;20652;-80
2020/12/10 00:28:13;;;;;;;21.27;18.37;;;4.80;99.90;;;;;;10193347;29;20240;-79
2020/12/10 00:33:15;;;;;;;23.73;19.20;;;4.70;99.90;;;;;;10158725;29;20566;-79
2020/12/10 00:38:16;;;;;;;25.97;19.80;;;4.70;99.90;;;;;;10173945;29;20240;-79
2020/12/10 00:43:19;;;;;;;23.30;19.53;;;4.70;99.90;;;;;;10140196;29;20202;-81
2020/12/10 00:48:20;;;;;;;24.73;20.10;;;4.70;99.90;;;;;;10190554;29;20218;-79
2020/12/10 00:53:23;;;;;;;20.90;15.77;;;4.70;99.90;;;;;;10191312;29;20277;-80
2020/12/10 00:58:25;;;;;;;26.73;20.77;;;4.60;99.90;;;;;;10190684;29;20295;-79
2020/12/10 01:03:27;;;;;;;25.80;20.10;;;4.60;99.90;;;;;;10272223;29;20788;-80
2020/12/10 01:08:29;;;;;;;22.80;18.80;;;4.60;99.90;;;;;;10272737;29;20205;-82
2020/12/10 01:13:31;;;;;;;23.70;19.30;;;4.50;99.90;;;;;;10270627;29;20228;-79
2020/12/10 01:18:33;;;;;;;20.60;17.90;;;4.50;99.90;;;;;;10256447;29;20292;-79
2020/12/10 01:23:35;;;;;;;23.33;18.30;;;4.50;99.90;;;;;;10253409;29;20204;-80
2020/12/10 01:28:38;;;;;;;23.23;18.13;;;4.60;99.90;;;;;;10252930;29;20592;-80
2020/12/10 01:33:39;;;;;;;20.37;17.03;;;4.60;99.90;;;;;;10255183;29;20264;-80
2020/12/10 01:38:41;;;;;;;20.70;17.07;;;4.70;99.90;;;;;;10272014;29;20283;-79
2020/12/10 01:43:44;;;;;;;19.57;16.83;;;4.70;99.90;;;;;;10274259;29;20223;-79
2020/12/10 01:48:45;;;;;;;20.03;16.80;;;4.70;99.90;;;;;;10255310;29;20236;-80
2020/12/10 01:53:47;;;;;;;20.77;16.93;;;4.70;99.90;;;;;;10266514;29;20259;-79
2020/12/10 01:58:49;;;;;;;19.77;15.80;;;4.70;99.90;;;;;;10227627;29;20284;-79
2020/12/10 02:03:51;;;;;;;20.70;17.50;;;4.70;99.90;;;;;;10171611;29;20226;-78
2020/12/10 02:08:53;;;;;;;20.77;16.40;;;4.70;99.90;;;;;;10182634;29;20217;-78
2020/12/10 02:13:55;;;;;;;20.10;17.47;;;4.70;99.90;;;;;;10185869;29;20237;-81
2020/12/10 02:18:57;;;;;;;20.60;17.17;;;4.70;99.90;;;;;;10189811;29;20713;-78
2020/12/10 02:23:59;;;;;;;22.77;18.00;;;4.70;99.90;;;;;;10176058;29;20198;-79
2020/12/10 02:29:02;;;;;;;22.80;18.40;;;4.60;99.90;;;;;;10221837;29;20229;-79
2020/12/10 02:34:06;;;;;;;23.40;19.70;;;4.60;99.90;;;;;;10206996;29;20292;-78
2020/12/10 02:39:09;;;;;;;23.80;18.80;;;4.50;99.90;;;;;;10242641;28;20323;-80
2020/12/10 02:44:11;;;;;;;22.93;19.50;;;4.50;99.90;;;;;;10224076;29;20213;-81
2020/12/10 02:49:12;;;;;;;23.17;19.60;;;4.40;99.90;;;;;;10202586;29;20221;-81
2020/12/10 02:54:15;;;;;;;22.70;18.50;;;4.40;99.90;;;;;;10228997;29;20205;-80
2020/12/10 02:59:16;;;;;;;24.10;19.60;;;4.40;99.90;;;;;;10233155;29;20237;-82
2020/12/10 03:04:18;;;;;;;23.60;19.60;;;4.30;99.90;;;;;;10234050;29;20284;-81
2020/12/10 03:09:20;;;;;;;25.37;20.10;;;4.40;99.90;;;;;;10223025;29;20308;-81
2020/12/10 03:14:22;;;;;;;24.77;20.27;;;4.40;99.90;;;;;;10251922;29;20193;-80
2020/12/10 03:19:24;;;;;;;24.20;20.07;;;4.40;99.90;;;;;;10256346;29;20228;-81
2020/12/10 03:24:26;;;;;;;25.93;20.47;;;4.40;99.90;;;;;;10248363;29;20189;-81
2020/12/10 03:29:28;;;;;;;25.30;20.20;;;4.40;99.90;;;;;;10249748;29;20239;-81
2020/12/10 03:34:30;;;;;;;24.63;19.20;;;4.50;99.90;;;;;;10214054;29;20268;-81
2020/12/10 03:39:33;;;;;;;24.47;19.97;;;4.40;99.90;;;;;;10223367;29;20251;-81
2020/12/10 03:44:35;;;;;;;26.30;20.40;;;4.50;99.90;;;;;;10185163;29;20216;-81
2020/12/10 03:49:36;;;;;;;27.27;21.53;;;4.50;99.90;;;;;;10202508;29;20221;-81
2020/12/10 03:54:39;;;;;;;25.33;20.67;;;4.60;99.90;;;;;;10257799;29;20209;-80
2020/12/10 03:59:40;;;;;;;23.57;19.50;;;4.60;99.90;;;;;;10207888;29;20239;-81
2020/12/10 04:04:42;;;;;;;28.10;20.63;;;4.60;99.90;;;;;;10236404;29;20232;-80
2020/12/10 04:09:45;;;;;;;27.83;21.00;;;4.60;99.90;;;;;;10217265;29;20716;-81
2020/12/10 04:14:47;;;;;;;25.20;19.57;;;4.60;99.90;;;;;;10233260;29;20202;-81
2020/12/10 04:19:48;;;;;;;27.00;20.30;;;4.60;99.90;;;;;;10236148;29;20721;-81
2020/12/10 04:24:51;;;;;;;26.93;20.50;;;4.60;99.90;;;;;;10234644;29;20217;-80
2020/12/10 04:29:52;;;;;;;25.67;20.20;;;4.50;99.90;;;;;;10273220;29;20208;-81
2020/12/10 04:34:54;;;;;;;27.03;22.03;;;4.40;99.90;;;;;;10241490;29;20215;-80
2020/12/10 04:39:56;;;;;;;27.83;21.83;;;4.30;99.90;;;;;;10215341;29;20249;-80
2020/12/10 04:44:58;;;;;;;28.70;22.73;;;4.20;99.90;;;;;;10232108;29;20697;-81
2020/12/10 04:50:03;;;;;;;33.00;23.47;;;4.20;99.90;;;;;;10216130;29;20274;-81
2020/12/10 04:55:06;;;;;;;32.43;24.23;;;4.20;99.90;;;;;;10212583;29;20658;-80
2020/12/10 05:00:08;;;;;;;31.37;20.83;;;4.20;99.90;;;;;;10230759;29;20233;-80
2020/12/10 05:05:23;;;;;;;29.73;23.10;;;4.10;99.90;;;;;;10226939;29;20205;-81
2020/12/10 05:10:26;;;;;;;28.63;23.30;;;4.10;99.90;;;;;;10224624;29;20220;-80
2020/12/10 05:15:32;;;;;;;26.30;22.00;;;4.10;99.90;;;;;;10231128;29;20206;-79
2020/12/10 05:20:45;;;;;;;29.43;24.10;;;4.10;99.90;;;;;;10268339;29;20577;-81
2020/12/10 05:25:49;;;;;;;26.23;21.27;;;4.10;99.90;;;;;;10259553;29;20205;-81
2020/12/10 05:31:06;;;;;;;28.60;21.13;;;4.10;99.90;;;;;;10215171;29;20230;-80
2020/12/10 05:36:12;;;;;;;28.93;22.40;;;4.10;99.90;;;;;;10207443;29;20219;-80
2020/12/10 05:41:22;;;;;;;30.70;24.97;;;4.20;99.90;;;;;;10208306;29;20225;-80
2020/12/10 05:46:27;;;;;;;30.77;23.07;;;4.30;99.90;;;;;;10222402;29;20225;-79
2020/12/10 05:51:40;;;;;;;31.07;23.10;;;4.30;99.90;;;;;;10239173;29;20308;-81
2020/12/10 05:56:55;;;;;;;26.33;21.53;;;4.20;99.90;;;;;;10237025;29;20207;-81
2020/12/10 06:01:58;;;;;;;26.47;21.07;;;4.20;99.90;;;;;;10220851;29;20225;-80
2020/12/10 06:07:00;;;;;;;30.87;23.70;;;4.20;99.90;;;;;;10224376;29;20217;-78
2020/12/10 06:12:03;;;;;;;28.70;21.70;;;4.20;99.90;;;;;;10229958;28;20237;-79
2020/12/10 06:17:10;;;;;;;32.43;20.50;;;4.20;99.90;;;;;;10248353;29;20232;-79
2020/12/10 06:22:28;;;;;;;24.30;20.73;;;4.20;99.90;;;;;;10197085;29;20307;-79
2020/12/10 06:27:33;;;;;;;21.87;19.30;;;4.20;99.90;;;;;;10230317;28;20196;-79
2020/12/10 06:32:40;;;;;;;23.20;19.60;;;4.20;99.90;;;;;;10231164;28;20256;-79
2020/12/10 06:38:10;;;;;;;23.77;18.83;;;4.30;99.90;;;;;;10239409;29;20266;-79
2020/12/10 06:43:16;;;;;;;24.00;19.80;;;4.20;99.90;;;;;;10212180;29;20670;-79
2020/12/10 06:48:19;;;;;;;22.13;17.90;;;4.20;99.90;;;;;;10220246;29;20202;-79
2020/12/10 06:53:22;;;;;;;25.70;18.93;;;4.20;99.90;;;;;;10199459;29;20213;-79
2020/12/10 06:58:49;;;;;;;25.17;19.87;;;4.20;99.90;;;;;;10200242;29;20232;-79
2020/12/10 07:03:53;;;;;;;26.17;19.83;;;4.20;99.90;;;;;;10231348;29;20240;-78
2020/12/10 07:09:03;;;;;;;26.57;19.40;;;4.20;99.90;;;;;;10218307;29;20212;-79
2020/12/10 07:14:25;;;;;;;26.43;19.23;;;4.20;99.90;;;;;;10215024;29;20225;-79
2020/12/10 07:19:31;;;;;;;27.23;22.80;;;4.20;99.90;;;;;;10226493;29;20316;-79
2020/12/10 07:24:34;;;;;;;27.27;22.07;;;4.30;99.90;;;;;;10235313;28;20208;-78
2020/12/10 07:34:54;;;;;;;30.87;22.30;;;4.40;99.90;;;;;;10210583;29;20705;-79
2020/12/10 07:39:55;;;;;;;26.70;20.50;;;4.50;99.90;;;;;;10214642;29;20229;-79
2020/12/10 07:50:26;;;;;;;26.47;18.80;;;4.50;99.90;;;;;;10229369;29;20245;-79
2020/12/10 07:55:31;;;;;;;26.50;20.80;;;4.50;99.90;;;;;;10226102;29;20238;-78
2020/12/10 08:00:33;;;;;;;28.87;21.40;;;4.60;99.90;;;;;;10221034;29;20317;-79
2020/12/10 08:05:35;;;;;;;27.33;20.50;;;4.50;99.90;;;;;;10205364;29;20201;-79
2020/12/10 08:10:40;;;;;;;31.13;22.10;;;4.50;99.90;;;;;;10220512;29;20272;-79
2020/12/10 08:21:04;;;;;;;27.80;21.40;;;4.50;99.90;;;;;;10195594;29;20630;-78
2020/12/10 08:26:10;;;;;;;25.33;20.60;;;4.50;99.90;;;;;;10216434;29;20209;-78
2020/12/10 08:31:20;;;;;;;26.70;19.90;;;4.50;99.90;;;;;;10217081;29;20327;-77
2020/12/10 08:36:32;;;;;;;25.90;19.10;;;4.60;99.90;;;;;;10228657;28;20210;-78
2020/12/10 08:41:35;;;;;;;24.70;19.57;;;4.60;99.90;;;;;;10223537;29;20292;-78
2020/12/10 08:46:38;;;;;;;22.60;18.60;;;4.60;99.90;;;;;;10240812;29;20589;-78
2020/12/10 08:51:40;;;;;;;25.30;18.17;;;4.60;99.90;;;;;;10228560;29;20224;-78
2020/12/10 08:56:43;;;;;;;25.30;18.57;;;4.60;99.90;;;;;;10238904;29;20228;-78
2020/12/10 09:02:00;;;;;;;20.53;17.73;;;4.60;99.90;;;;;;10242741;29;20719;-78
2020/12/10 09:07:04;;;;;;;22.60;17.20;;;4.70;99.90;;;;;;10238977;29;20661;-79
2020/12/10 09:17:24;;;;;;;15.57;13.20;;;4.80;99.90;;;;;;10244025;29;20661;-78
2020/12/10 09:22:28;;;;;;;15.97;13.50;;;4.80;99.90;;;;;;10242592;29;20303;-78
2020/12/10 09:27:30;;;;;;;12.80;11.20;;;4.80;99.90;;;;;;10222575;29;20287;-79
2020/12/10 09:32:34;;;;;;;15.63;12.07;;;4.80;99.90;;;;;;10225411;29;20311;-79
2020/12/10 09:37:37;;;;;;;13.43;11.53;;;4.90;99.90;;;;;;10241557;29;20235;-79
2020/12/10 09:42:38;;;;;;;12.30;10.47;;;5.10;99.90;;;;;;10240583;29;20323;-78
2020/12/10 09:47:46;;;;;;;11.13;9.87;;;5.20;99.90;;;;;;10243507;29;20231;-79
2020/12/10 09:52:57;;;;;;;11.43;9.43;;;5.30;99.90;;;;;;10227617;29;20224;-78
2020/12/10 09:57:59;;;;;;;11.13;10.03;;;5.30;99.90;;;;;;10243013;29;20705;-78
2020/12/10 10:03:05;;;;;;;11.23;9.73;;;5.40;99.90;;;;;;10223394;29;20739;-78
2020/12/10 10:08:08;;;;;;;12.10;9.93;;;5.40;99.90;;;;;;10229782;29;20205;-78
2020/12/10 10:13:10;;;;;;;10.23;9.20;;;5.40;99.90;;;;;;10194518;29;20209;-78
2020/12/10 10:23:31;;;;;;;12.17;10.30;;;5.40;99.90;;;;;;10198354;29;20204;-78
2020/12/10 10:28:54;;;;;;;12.00;10.10;;;5.30;99.90;;;;;;10218359;29;20294;-78
2020/12/10 10:33:56;;;;;;;13.93;12.30;;;5.30;99.90;;;;;;10216545;29;20212;-79
2020/12/10 10:38:59;;;;;;;12.33;10.83;;;5.30;99.90;;;;;;10217695;29;20225;-78
2020/12/10 10:44:26;;;;;;;14.90;12.20;;;5.30;99.90;;;;;;10218320;29;20197;-78
2020/12/10 10:49:29;;;;;;;15.07;12.30;;;5.40;99.90;;;;;;10218419;29;20224;-79
2020/12/10 10:54:31;;;;;;;14.53;12.07;;;5.40;99.90;;;;;;10220537;29;20188;-79
2020/12/10 11:04:55;;;;;;;17.53;13.70;;;5.70;99.90;;;;;;10232791;29;20211;-79
2020/12/10 11:09:56;;;;;;;15.07;13.30;;;5.80;99.90;;;;;;10226561;29;20232;-79
2020/12/10 11:14:58;;;;;;;14.90;12.37;;;5.90;99.90;;;;;;10224102;29;20243;-79
2020/12/10 11:20:29;;;;;;;13.97;11.87;;;5.90;99.70;;;;;;10221249;29;20221;-79
2020/12/10 11:26:01;;;;;;;16.10;13.30;;;5.80;99.70;;;;;;10210344;29;20287;-79
2020/12/10 11:31:03;;;;;;;14.77;12.47;;;5.70;99.90;;;;;;10221259;29;20237;-79
2020/12/10 11:36:06;;;;;;;14.37;11.97;;;5.60;99.90;;;;;;10228134;29;20202;-79
2020/12/10 11:41:08;;;;;;;12.37;10.67;;;5.70;99.90;;;;;;10220738;29;20698;-78
2020/12/10 11:46:10;;;;;;;16.67;13.00;;;5.70;99.90;;;;;;10204716;29;20568;-79
2020/12/10 11:51:12;;;;;;;17.07;14.07;;;5.60;99.90;;;;;;10222379;29;20221;-80
2020/12/10 11:56:22;;;;;;;16.90;14.17;;;5.70;99.90;;;;;;10221675;29;20217;-79
2020/12/10 12:01:24;;;;;;;18.53;15.00;;;5.70;99.90;;;;;;10216067;29;20221;-79
2020/12/10 12:06:43;;;;;;;18.37;14.20;;;5.70;99.90;;;;;;10227429;29;20280;-79
2020/12/10 12:11:53;;;;;;;16.17;14.23;;;5.70;99.90;;;;;;10207211;29;20263;-79
2020/12/10 12:17:00;;;;;;;17.33;14.30;;;5.60;99.90;;;;;;10239306;29;20281;-79
2020/12/10 12:22:03;;;;;;;18.47;14.40;;;5.60;99.90;;;;;;10220715;29;20233;-80
2020/12/10 12:27:05;;;;;;;16.70;13.00;;;5.70;99.90;;;;;;10242571;29;20268;-79
2020/12/10 12:37:46;;;;;;;19.47;15.20;;;5.80;99.90;;;;;;10195013;29;20193;-79
2020/12/10 12:42:49;;;;;;;17.17;15.00;;;5.80;99.90;;;;;;10224906;29;20220;-81
2020/12/10 12:53:24;;;;;;;18.43;15.10;;;5.80;99.90;;;;;;10201820;29;20214;-81
2020/12/10 12:58:25;;;;;;;19.27;14.27;;;5.80;99.80;;;;;;10215892;29;20233;-82
2020/12/10 13:03:29;;;;;;;19.40;15.70;;;5.80;99.90;;;;;;10223888;29;20197;-80
2020/12/10 13:08:32;;;;;;;19.43;15.17;;;5.70;99.90;;;;;;10227925;28;20223;-82
2020/12/10 13:24:38;;;;;;;20.53;16.07;;;5.80;99.90;;;;;;10239053;28;20215;-81
2020/12/10 13:35:16;;;;;;;19.87;16.07;;;5.80;99.80;;;;;;10220665;29;20201;-81
2020/12/10 13:40:19;;;;;;;18.60;14.53;;;5.70;99.90;;;;;;10223285;29;20231;-81
2020/12/10 13:45:20;;;;;;;17.87;14.17;;;5.70;99.60;;;;;;10236617;29;20197;-81
2020/12/10 13:55:40;;;;;;;17.60;13.83;;;5.70;99.90;;;;;;10241054;28;20283;-81
2020/12/10 14:00:42;;;;;;;17.40;14.17;;;5.70;99.90;;;;;;10224401;28;20227;-79
2020/12/10 14:11:24;;;;;;;19.03;14.97;;;5.80;99.70;;;;;;10232544;29;20213;-79
2020/12/10 14:16:26;;;;;;;23.67;16.37;;;5.80;99.80;;;;;;10239313;29;20640;-80
2020/12/10 14:21:47;;;;;;;19.80;16.13;;;5.80;99.90;;;;;;10243635;29;20313;-80
2020/12/10 14:26:50;;;;;;;18.80;14.53;;;5.80;99.90;;;;;;10213466;29;20539;-81
2020/12/10 14:37:08;;;;;;;20.90;15.40;;;5.80;99.90;;;;;;10219535;29;20292;-80
2020/12/10 14:42:25;;;;;;;18.83;14.90;;;5.90;99.90;;;;;;10214567;29;20769;-80
2020/12/10 14:47:27;;;;;;;21.83;16.40;;;5.90;99.90;;;;;;10215457;29;20232;-78
2020/12/10 14:52:34;;;;;;;25.00;17.80;;;5.90;99.90;;;;;;10196130;29;20217;-78
2020/12/10 14:57:37;;;;;;;22.87;16.27;;;5.80;99.90;;;;;;10182389;29;20209;-79
2020/12/10 15:02:43;;;;;;;23.10;18.20;;;5.70;99.90;;;;;;10210374;29;20715;-82
2020/12/10 15:08:11;;;;;;;22.63;16.53;;;5.70;99.90;;;;;;10215542;29;20212;-82
2020/12/10 15:13:18;;;;;;;21.70;16.07;;;5.70;99.90;;;;;;10222277;29;20576;-81
2020/12/10 15:18:20;;;;;;;25.50;18.30;;;5.70;99.90;;;;;;10231513;29;20224;-80
2020/12/10 15:23:22;;;;;;;24.27;17.63;;;5.70;99.90;;;;;;10246321;29;20284;-80
2020/12/10 15:28:25;;;;;;;22.50;16.77;;;5.60;99.90;;;;;;10225443;29;20217;-80
2020/12/10 15:33:26;;;;;;;22.50;17.20;;;5.60;99.90;;;;;;10221254;29;20189;-79
2020/12/10 15:38:39;;;;;;;25.57;21.60;;;5.60;99.90;;;;;;10203219;29;20229;-79
2020/12/10 15:44:41;;;;;;;25.10;17.70;;;5.60;99.90;;;;;;10219216;29;20588;-79
2020/12/10 15:54:58;;;;;;;25.23;19.10;;;5.50;99.90;;;;;;10234612;29;20231;-80
2020/12/10 16:00:01;;;;;;;34.00;22.73;;;5.50;99.90;;;;;;10232932;29;20272;-79
2020/12/10 16:05:18;;;;;;;32.20;23.70;;;5.50;99.90;;;;;;10234408;29;20629;-78
2020/12/10 16:10:19;;;;;;;33.80;24.17;;;5.50;99.90;;;;;;10254689;28;20228;-79
2020/12/10 16:15:38;;;;;;;26.03;20.80;;;5.50;99.90;;;;;;10216961;28;20212;-79
2020/12/10 16:20:44;;;;;;;26.00;20.20;;;5.40;99.90;;;;;;10240923;29;20263;-79
2020/12/10 16:25:46;;;;;;;22.43;18.13;;;5.50;99.90;;;;;;10218659;29;20205;-78
2020/12/10 16:30:48;;;;;;;24.27;18.73;;;5.50;99.90;;;;;;10237383;29;20259;-82
2020/12/10 16:35:50;;;;;;;25.57;19.57;;;5.40;99.90;;;;;;10237788;28;20197;-81
2020/12/10 16:40:52;;;;;;;28.10;19.23;;;5.40;99.90;;;;;;10227579;29;20680;-79
2020/12/10 16:45:54;;;;;;;21.73;17.37;;;5.40;99.90;;;;;;10246617;29;20236;-80
2020/12/10 16:50:56;;;;;;;24.30;18.60;;;5.40;99.90;;;;;;10246081;29;20219;-81
2020/12/10 16:55:57;;;;;;;49.07;34.40;;;5.40;99.90;;;;;;10243921;29;20213;-80
2020/12/10 17:01:00;;;;;;;32.97;24.13;;;5.40;99.90;;;;;;10247801;29;20807;-80
2020/12/10 17:06:02;;;;;;;25.80;19.77;;;5.40;99.90;;;;;;10226876;29;20200;-80
2020/12/10 17:11:04;;;;;;;26.03;19.87;;;5.40;99.90;;;;;;10230512;29;20225;-81
2020/12/10 17:16:06;;;;;;;24.10;18.83;;;5.40;99.90;;;;;;10221205;29;20227;-80
2020/12/10 17:21:08;;;;;;;33.20;23.40;;;5.50;99.90;;;;;;10246832;29;20235;-81
2020/12/10 17:26:10;;;;;;;24.67;19.00;;;5.50;99.90;;;;;;10230994;29;20212;-80
2020/12/10 17:31:16;;;;;;;30.10;21.73;;;5.50;99.90;;;;;;10249248;29;20264;-80
2020/12/10 17:36:22;;;;;;;29.30;20.83;;;5.50;99.90;;;;;;10231587;29;20208;-80
2020/12/10 17:41:25;;;;;;;19.60;16.90;;;5.50;99.90;;;;;;10255946;29;20678;-79
2020/12/10 17:46:27;;;;;;;21.70;17.33;;;5.50;99.90;;;;;;10277490;29;20189;-78
2020/12/10 17:51:29;;;;;;;19.07;16.43;;;5.50;99.90;;;;;;10234568;29;20225;-81
2020/12/10 17:56:31;;;;;;;21.17;17.20;;;5.50;99.90;;;;;;10239850;29;20265;-81
2020/12/10 18:01:33;;;;;;;18.53;15.50;;;5.40;99.90;;;;;;10228093;28;20335;-81
2020/12/10 18:06:35;;;;;;;20.23;16.23;;;5.40;99.90;;;;;;10241100;28;20193;-80
2020/12/10 18:11:37;;;;;;;22.60;18.30;;;5.40;99.90;;;;;;10254845;28;20311;-81
2020/12/10 18:16:40;;;;;;;22.40;17.83;;;5.40;99.90;;;;;;10231443;29;20204;-80
2020/12/10 18:21:41;;;;;;;24.00;20.07;;;5.50;99.90;;;;;;10246956;29;20580;-81
2020/12/10 18:26:43;;;;;;;20.90;15.80;;;5.50;99.90;;;;;;10239008;28;20221;-79
2020/12/10 18:31:45;;;;;;;21.67;18.37;;;5.50;99.90;;;;;;10229286;28;20693;-79
2020/12/10 18:36:48;;;;;;;22.30;18.30;;;5.50;99.90;;;;;;10224834;29;20240;-79
2020/12/10 18:41:50;;;;;;;21.60;17.00;;;5.40;99.90;;;;;;10248959;29;20280;-80
2020/12/10 18:46:56;;;;;;;21.20;17.13;;;5.40;99.90;;;;;;10227234;29;20239;-79
2020/12/10 18:52:01;;;;;;;22.53;17.00;;;5.50;99.90;;;;;;10220172;29;20225;-79
2020/12/10 18:57:02;;;;;;;19.03;16.07;;;5.50;99.90;;;;;;10220248;29;20203;-80
2020/12/10 19:02:10;;;;;;;18.43;16.00;;;5.50;99.90;;;;;;10229266;29;20239;-81
2020/12/10 19:07:14;;;;;;;24.47;18.37;;;5.50;99.90;;;;;;10231216;29;20224;-80
2020/12/10 19:12:16;;;;;;;22.00;18.07;;;5.50;99.90;;;;;;10212078;29;20224;-80
2020/12/10 19:17:19;;;;;;;24.50;19.80;;;5.50;99.90;;;;;;10215648;29;20210;-79
2020/12/10 19:22:20;;;;;;;22.43;17.00;;;5.40;99.90;;;;;;10197361;29;20233;-79
2020/12/10 19:27:22;;;;;;;21.20;17.40;;;5.40;99.90;;;;;;10219560;29;20224;-79
2020/12/10 19:32:25;;;;;;;22.33;17.70;;;5.30;99.90;;;;;;10216620;29;20240;-80
2020/12/10 19:37:26;;;;;;;25.67;21.17;;;5.30;99.90;;;;;;10216522;29;20208;-80
2020/12/10 19:42:28;;;;;;;21.23;18.30;;;5.30;99.90;;;;;;10215284;29;20225;-79
2020/12/10 19:47:31;;;;;;;20.60;17.97;;;5.30;99.90;;;;;;10192188;29;20256;-80
2020/12/10 19:52:33;;;;;;;20.60;17.50;;;5.30;99.90;;;;;;10236876;29;20236;-80
2020/12/10 19:57:35;;;;;;;21.00;17.93;;;5.30;99.90;;;;;;10238036;29;20268;-79
2020/12/10 20:02:37;;;;;;;22.37;18.17;;;5.30;99.90;;;;;;10218110;29;20247;-79
2020/12/10 20:07:39;;;;;;;26.07;20.00;;;5.30;99.90;;;;;;10228868;29;20935;-79
2020/12/10 20:12:40;;;;;;;19.93;17.03;;;5.30;99.90;;;;;;10203904;29;20316;-79
2020/12/10 20:17:43;;;;;;;20.37;17.60;;;5.20;99.90;;;;;;10228181;29;20305;-80
2020/12/10 20:22:46;;;;;;;22.20;18.70;;;5.30;99.90;;;;;;10221314;29;20233;-80
2020/12/10 20:27:48;;;;;;;22.97;18.67;;;5.30;99.90;;;;;;10208505;29;20209;-79
2020/12/10 20:32:50;;;;;;;22.50;18.83;;;5.30;99.90;;;;;;10228011;29;20298;-79
2020/12/10 20:37:52;;;;;;;24.33;18.27;;;5.20;99.90;;;;;;10242924;29;20961;-79
2020/12/10 20:42:53;;;;;;;21.27;17.50;;;5.20;99.90;;;;;;10230486;29;20246;-79
2020/12/10 20:47:56;;;;;;;21.73;18.00;;;5.20;99.90;;;;;;10254431;29;20283;-79
2020/12/10 20:53:00;;;;;;;19.73;17.30;;;5.20;99.90;;;;;;10196223;29;20753;-80
2020/12/10 20:58:01;;;;;;;24.43;18.63;;;5.20;99.90;;;;;;10226634;29;20748;-81
2020/12/10 21:03:04;;;;;;;22.53;17.73;;;5.20;99.90;;;;;;10221079;29;20519;-80
2020/12/10 21:08:06;;;;;;;18.93;16.80;;;5.20;99.90;;;;;;10229861;28;20516;-80
2020/12/10 21:13:07;;;;;;;20.40;17.23;;;5.20;99.90;;;;;;10196962;29;20209;-81
2020/12/10 21:18:10;;;;;;;19.53;16.93;;;5.20;99.90;;;;;;10229686;28;20204;-79
2020/12/10 21:23:12;;;;;;;19.17;16.63;;;5.30;99.90;;;;;;10231821;29;20599;-80
2020/12/10 21:28:14;;;;;;;20.03;17.60;;;5.20;99.90;;;;;;10215595;28;20510;-80
2020/12/10 21:33:16;;;;;;;21.60;17.90;;;5.20;99.90;;;;;;10240949;29;20193;-80
2020/12/10 21:38:18;;;;;;;21.53;16.77;;;5.10;99.90;;;;;;10209883;28;20339;-80
2020/12/10 21:43:20;;;;;;;23.70;17.70;;;5.10;99.90;;;;;;10229823;29;20277;-81
2020/12/10 21:48:22;;;;;;;21.37;18.00;;;5.10;99.90;;;;;;10233401;29;20275;-81
2020/12/10 21:53:24;;;;;;;19.73;17.47;;;5.10;99.90;;;;;;10231317;28;20208;-79
2020/12/10 21:58:25;;;;;;;19.60;17.03;;;5.10;99.90;;;;;;10227456;29;20224;-81
2020/12/10 22:03:28;;;;;;;20.30;17.60;;;5.10;99.90;;;;;;10214585;29;20232;-81
2020/12/10 22:08:29;;;;;;;19.33;17.33;;;5.10;99.90;;;;;;10236662;29;20568;-81
2020/12/10 22:13:34;;;;;;;18.10;15.83;;;5.00;99.90;;;;;;10222872;29;20272;-80
2020/12/10 22:18:36;;;;;;;19.67;17.10;;;5.00;99.90;;;;;;10235375;29;20230;-81
2020/12/10 22:23:38;;;;;;;20.83;18.07;;;5.10;99.90;;;;;;10216107;29;20250;-80
2020/12/10 22:28:40;;;;;;;20.10;17.30;;;5.00;99.90;;;;;;10233647;29;20234;-80
2020/12/10 22:33:42;;;;;;;19.40;17.33;;;5.00;99.90;;;;;;10238216;29;20216;-80
2020/12/10 22:38:46;;;;;;;20.60;18.13;;;5.00;99.90;;;;;;10251722;28;20280;-81
2020/12/10 22:43:48;;;;;;;19.53;17.00;;;5.00;99.90;;;;;;10245633;29;20205;-81
2020/12/10 22:48:53;;;;;;;20.20;18.07;;;5.00;99.90;;;;;;10245306;29;20251;-80
2020/12/10 22:53:55;;;;;;;18.47;16.47;;;5.00;99.90;;;;;;10228966;28;20201;-80
2020/12/10 22:58:57;;;;;;;19.17;16.23;;;5.00;99.90;;;;;;10206421;29;20286;-81
2020/12/10 23:03:59;;;;;;;19.03;17.00;;;5.00;99.90;;;;;;10223435;29;20296;-81
2020/12/10 23:09:03;;;;;;;18.90;16.43;;;5.00;99.90;;;;;;10247150;29;20228;-81
2020/12/10 23:14:05;;;;;;;19.70;17.43;;;5.00;99.90;;;;;;10234398;29;20193;-79
2020/12/10 23:19:08;;;;;;;20.20;18.07;;;5.00;99.90;;;;;;10231324;29;20213;-80
2020/12/10 23:24:10;;;;;;;19.40;17.30;;;5.00;99.90;;;;;;10232946;29;20249;-81
2020/12/10 23:29:11;;;;;;;19.30;17.30;;;5.00;99.90;;;;;;10198695;29;20275;-80
2020/12/10 23:34:14;;;;;;;18.27;16.37;;;5.10;99.90;;;;;;10218510;29;20213;-79
2020/12/10 23:39:15;;;;;;;18.17;16.20;;;5.10;99.90;;;;;;10229930;28;20598;-80
2020/12/10 23:44:17;;;;;;;18.87;16.63;;;5.10;99.90;;;;;;10196498;29;20209;-79
2020/12/10 23:49:19;;;;;;;18.20;16.30;;;5.10;99.90;;;;;;10190877;29;20228;-80
2020/12/10 23:54:21;;;;;;;17.43;15.60;;;5.20;99.90;;;;;;10213157;29;20224;-81
2020/12/10 23:59:23;;;;;;;18.27;16.37;;;5.20;99.90;;;;;;10211230;29;20252;-79
